Westminster, MD

3:31 AM EST on November 21, 2019 (GMT -0500)
Carroll County Regional-Poage

Weather History for KDMW - September, 2019

Change the Weather History Date:

Tuesday, September 24, 2019

  Actual Average (WUND) Record (WUND)
Temperature  
Mean Temperature 72 °F -  
Max Temperature 80 °F - - (-1)
Min Temperature 64 °F - - (-1)
Cooling Degree Days 7    
Growing Degree Days 22 (Base 50)    
Moisture  
Dew Point 55 °F    
Average Humidity 59    
Maximum Humidity 88    
Minimum Humidity 36    
Precipitation  
Precipitation 0.00 in - - ()
Sea Level Pressure  
Sea Level Pressure 29.90 in    
Wind  
Wind Speed 7 mph (NW)    
Max Wind Speed 16 mph    
Max Gust Speed 23 mph    
Visibility 10 miles    
Events      
Averages and records for this station are not official NWS values.
T = Trace of Precipitation, MM = Missing Value Source: NWS Daily Summary

Daily Weather History Graph

Daily Weather History Graph

Search for Another Location

Airport or City:

Astronomy

Sep. 24, 2019 Rise Set
Actual Time 6:57 AM EDT 7:02 PM EDT
Civil Twilight 6:30 AM EDT 7:29 PM EDT
Nautical Twilight 5:59 AM EDT 8:00 PM EDT
Astronomical Twilight 5:27 AM EDT 8:32 PM EDT
Moon 1:41 AM EDT (9/24) 4:45 PM EDT (9/24)
Length of Visible Light 12h 58m
Length of Day
12h 04m
Waning Crescent, 23% of the Moon is Illuminated
Sep 24
Waning Crescent
Sep 28
New
Oct 5
First Quarter
Oct 13
Full
Oct 21
Last Quarter

Hourly Weather History & Observations

Time (EDT) Temp. Dew Point Humidity Pressure Visibility Wind Dir Wind Speed Gust Speed Precip Events Conditions
12:00 AM 73.4 °F 66.2 °F 78% 29.87 in 10.0 mi WNW 6.9 mph - N/A   Clear
12:20 AM 73.4 °F 66.2 °F 78% 29.87 in 10.0 mi West 4.6 mph - N/A   Clear
12:40 AM 71.6 °F 66.2 °F 83% 29.87 in 10.0 mi West 5.8 mph - N/A   Scattered Clouds
1:00 AM 69.8 °F 66.2 °F 88% 29.86 in 10.0 mi West 5.8 mph - N/A   Scattered Clouds
1:20 AM 71.6 °F 66.2 °F 83% 29.87 in 10.0 mi West 4.6 mph - N/A   Clear
1:40 AM 71.6 °F 64.4 °F 78% 29.87 in 10.0 mi WNW 6.9 mph - N/A   Scattered Clouds
2:00 AM 71.6 °F 64.4 °F 78% 29.87 in 10.0 mi West 5.8 mph - N/A   Scattered Clouds
2:20 AM 69.8 °F 64.4 °F 83% 29.87 in 10.0 mi Calm Calm - N/A   Clear
2:40 AM 69.8 °F 64.4 °F 83% 29.87 in 10.0 mi Calm Calm - N/A   Clear
3:00 AM 68.0 °F 64.4 °F 88% 29.86 in 10.0 mi Calm Calm - N/A   Clear
4:20 AM 68.0 °F 60.8 °F 78% 29.87 in 10.0 mi Calm Calm - N/A   Clear
5:00 AM 66.2 °F 59.0 °F 78% 29.87 in 10.0 mi NW 5.8 mph - N/A   Clear
5:20 AM 66.2 °F 59.0 °F 78% 29.87 in 10.0 mi NW 4.6 mph - N/A   Clear
5:40 AM 66.2 °F 57.2 °F 73% 29.88 in 10.0 mi WNW 4.6 mph - N/A   Clear
6:00 AM 66.2 °F 57.2 °F 73% 29.88 in 10.0 mi Calm Calm - N/A   Clear
6:20 AM 64.4 °F 57.2 °F 77% 29.88 in 10.0 mi West 3.5 mph - N/A   Clear
6:40 AM 64.4 °F 55.4 °F 73% 29.89 in 10.0 mi NW 5.8 mph - N/A   Clear
7:00 AM 66.2 °F 55.4 °F 68% 29.89 in 10.0 mi WNW 8.1 mph - N/A   Clear
7:20 AM 66.2 °F 55.4 °F 68% 29.90 in 10.0 mi WNW 6.9 mph - N/A   Clear
7:40 AM 66.2 °F 55.4 °F 68% 29.90 in 10.0 mi WNW 9.2 mph - N/A   Clear
8:00 AM 66.2 °F 55.4 °F 68% 29.90 in 10.0 mi WNW 12.7 mph 19.6 mph N/A   Clear
8:20 AM 66.2 °F 55.4 °F 68% 29.91 in 10.0 mi WNW 12.7 mph 17.3 mph N/A   Clear
8:40 AM 68.0 °F 57.2 °F 68% 29.91 in 10.0 mi WNW 12.7 mph 18.4 mph N/A   Clear
9:00 AM 68.0 °F 55.4 °F 64% 29.91 in 10.0 mi WNW 15.0 mph - N/A   Clear
9:20 AM 69.8 °F 55.4 °F 60% 29.92 in 10.0 mi WNW 13.8 mph 19.6 mph N/A   Clear
9:40 AM 69.8 °F 55.4 °F 60% 29.92 in 10.0 mi WNW 12.7 mph 19.6 mph N/A   Clear
10:00 AM 69.8 °F 55.4 °F 60% 29.93 in 10.0 mi NW 10.4 mph 18.4 mph N/A   Clear
10:20 AM 71.6 °F 55.4 °F 57% 29.93 in 10.0 mi WNW 13.8 mph 23.0 mph N/A   Clear
10:40 AM 71.6 °F 55.4 °F 57% 29.93 in 10.0 mi West 11.5 mph 19.6 mph N/A   Clear
11:00 AM 71.6 °F 55.4 °F 57% 29.93 in 10.0 mi WNW 12.7 mph 23.0 mph N/A   Clear
11:20 AM 73.4 °F 53.6 °F 50% 29.93 in 10.0 mi WNW 11.5 mph 18.4 mph N/A   Scattered Clouds
11:40 AM 73.4 °F 55.4 °F 53% 29.92 in 10.0 mi West 15.0 mph 20.7 mph N/A   Scattered Clouds
12:00 PM 73.4 °F 53.6 °F 50% 29.92 in 10.0 mi WNW 15.0 mph 20.7 mph N/A   Clear
12:20 PM 73.4 °F 53.6 °F 50% 29.91 in 10.0 mi NW 9.2 mph - N/A   Clear
12:40 PM 75.2 °F 53.6 °F 47% 29.91 in 10.0 mi NNW 8.1 mph 18.4 mph N/A   Scattered Clouds
1:00 PM 75.2 °F 53.6 °F 47% 29.90 in 10.0 mi WNW 12.7 mph 19.6 mph N/A   Clear
1:20 PM 75.2 °F 53.6 °F 47% 29.90 in 10.0 mi NW 11.5 mph 21.9 mph N/A   Scattered Clouds
1:40 PM 77.0 °F 53.6 °F 44% 29.89 in 10.0 mi WNW 16.1 mph - N/A   Mostly Cloudy
2:00 PM 77.0 °F 51.8 °F 41% 29.89 in 10.0 mi NNW 6.9 mph - N/A   Scattered Clouds
2:20 PM 75.2 °F 51.8 °F 44% 29.89 in 10.0 mi NNW 5.8 mph 16.1 mph N/A   Mostly Cloudy
2:40 PM 75.2 °F 53.6 °F 47% 29.89 in 10.0 mi NW 8.1 mph - N/A   Overcast
3:00 PM 77.0 °F 51.8 °F 41% 29.88 in 10.0 mi NW 10.4 mph 16.1 mph N/A   Overcast
3:20 PM 75.2 °F 51.8 °F 44% 29.89 in 10.0 mi NNW 9.2 mph - N/A   Mostly Cloudy
3:40 PM 78.8 °F 51.8 °F 39% 29.88 in 10.0 mi NW 10.4 mph 16.1 mph N/A   Scattered Clouds
4:00 PM 78.8 °F 51.8 °F 39% 29.88 in 10.0 mi WNW 10.4 mph 17.3 mph N/A   Scattered Clouds
4:20 PM 78.8 °F 51.8 °F 39% 29.88 in 10.0 mi NNW 6.9 mph - N/A   Mostly Cloudy
4:40 PM 77.0 °F 51.8 °F 41% 29.88 in 10.0 mi NNW 6.9 mph - N/A   Mostly Cloudy
5:00 PM 78.8 °F 51.8 °F 39% 29.87 in 10.0 mi North 8.1 mph - N/A   Overcast
5:20 PM 80.6 °F 51.8 °F 37% 29.88 in 10.0 mi NW 11.5 mph 17.3 mph N/A   Mostly Cloudy
5:40 PM 75.2 °F 50.0 °F 41% 29.88 in 10.0 mi NW 6.9 mph - N/A   Overcast
6:00 PM 78.8 °F 50.0 °F 36% 29.89 in 10.0 mi NW 6.9 mph - N/A   Scattered Clouds
6:20 PM 75.2 °F 50.0 °F 41% 29.88 in 10.0 mi NW 4.6 mph - N/A   Clear
6:40 PM 75.2 °F 50.0 °F 41% 29.89 in 10.0 mi WNW 4.6 mph - N/A   Clear
7:00 PM 73.4 °F 50.0 °F 44% 29.89 in 10.0 mi NW 3.5 mph - N/A   Clear
7:20 PM 71.6 °F 51.8 °F 50% 29.90 in 10.0 mi NW 4.6 mph - N/A   Clear
7:40 PM 69.8 °F 51.8 °F 53% 29.91 in 10.0 mi NW 3.5 mph - N/A   Clear
8:00 PM 69.8 °F 51.8 °F 53% 29.91 in 10.0 mi NW 3.5 mph - N/A   Clear
8:40 PM 69.8 °F 51.8 °F 53% 29.92 in 10.0 mi NW 4.6 mph - N/A   Clear
9:00 PM 69.8 °F 51.8 °F 53% 29.92 in 10.0 mi WNW 4.6 mph - N/A   Clear
9:20 PM 68.0 °F 51.8 °F 56% 29.93 in 10.0 mi WNW 6.9 mph - N/A   Clear
9:40 PM 68.0 °F 51.8 °F 56% 29.94 in 10.0 mi WNW 5.8 mph - N/A   Clear
10:00 PM 68.0 °F 51.8 °F 56% 29.93 in 10.0 mi WNW 5.8 mph - N/A   Clear
10:20 PM 66.2 °F 51.8 °F 60% 29.93 in 10.0 mi NW 4.6 mph - N/A   Clear
10:40 PM 66.2 °F 51.8 °F 60% 29.93 in 10.0 mi WNW 3.5 mph - N/A   Clear
11:00 PM 66.2 °F 51.8 °F 60% 29.94 in 10.0 mi WNW 4.6 mph - N/A   Clear
11:20 PM 66.2 °F 51.8 °F 60% 29.94 in 10.0 mi Calm Calm - N/A   Clear
11:40 PM 64.4 °F 51.8 °F 64% 29.94 in 10.0 mi Calm Calm - N/A   Clear